Date,TemperatureHighF,TemperatureAvgF,TemperatureLowF,DewpointHighF,DewpointAvgF,DewpointLowF,HumidityHigh,HumidityAvg,HumidityLow,PressureMaxIn,PressureMinIn,WindSpeedMaxMPH,WindSpeedAvgMPH,GustSpeedMaxMPH,PrecipitationSumIn
2013-7-1,78.5,67.6,55.1,59.1,54.3,51.1,88,65,41,30.04,29.97,9,1,15,0.00
2013-7-2,77.3,65.8,54.5,59.7,54.9,48.3,94,71,40,30.06,29.99,5,0,9,0.00
2013-7-3,73.9,62.3,51.4,63.2,57.6,50.3,97,85,69,30.04,29.97,1,0,5,0.00
2013-7-4,84.0,71.0,56.1,67.7,62.9,55.5,99,78,53,30.03,29.94,1,0,7,0.01
2013-7-5,85.1,73.3,60.7,69.8,65.1,59.0,95,77,54,30.00,29.92,3,0,11,0.00
2013-7-6,87.0,72.1,61.8,70.7,65.6,60.2,96,82,57,29.98,29.89,1,0,6,0.00
2013-7-7,89.7,77.8,66.4,75.4,70.8,65.4,98,80,59,29.92,29.85,1,0,5,0.00
2013-7-8,89.8,78.2,69.0,79.6,73.4,67.8,97,86,69,29.91,29.85,4,0,13,0.43
2013-7-9,85.7,77.6,71.3,78.4,74.7,70.7,99,91,78,29.91,29.78,4,0,11,0.14
2013-7-10,83.0,75.5,62.6,75.1,67.5,59.9,99,78,54,29.96,29.79,5,0,11,0.00
2013-7-11,82.7,69.3,56.1,64.7,60.1,55.3,98,76,48,30.07,29.97,4,0,6,0.00
2013-7-12,85.0,71.0,56.0,65.7,60.6,53.4,95,72,45,30.10,30.02,1,0,4,0.00
2013-7-13,84.6,71.6,56.7,66.8,62.5,55.1,97,75,50,30.09,30.02,4,0,6,0.00
2013-7-14,88.4,76.6,63.1,73.6,68.3,60.7,92,77,57,30.14,30.08,6,0,6,0.00
2013-7-15,93.3,80.6,68.7,78.7,73.1,66.9,95,79,57,30.20,30.12,0,0,5,0.00
2013-7-16,92.9,81.8,71.6,79.1,75.8,70.8,99,83,63,30.22,30.16,2,0,6,0.00
2013-7-17,95.3,83.0,70.6,78.7,75.5,70.0,99,80,57,30.23,30.10,0,0,7,0.00
2013-7-18,94.9,83.4,71.3,79.1,75.5,70.7,99,79,56,30.11,29.85,1,0,10,0.00
2013-7-19,92.7,81.9,71.7,78.6,74.1,67.6,97,79,61,29.85,29.69,7,0,18,0.00
2013-7-20,87.9,75.7,61.3,70.3,66.2,59.9,97,75,51,29.87,29.76,4,0,10,0.00
2013-7-21,84.9,72.0,62.8,73.2,66.3,61.7,96,83,64,29.89,29.80,3,0,10,0.00
2013-7-22,88.1,74.2,60.8,74.3,68.0,60.2,99,83,61,29.82,29.66,4,0,18,0.18
2013-7-23,78.7,68.6,58.8,64.2,60.3,55.6,98,77,50,29.93,29.66,6,1,11,0.00
2013-7-24,76.3,64.5,52.5,58.4,55.2,51.7,98,74,49,30.03,29.93,5,0,9,0.00
2013-7-25,81.9,68.1,52.6,65.9,59.9,51.2,96,77,56,30.04,29.95,5,0,6,0.00
2013-7-26,77.8,67.3,59.5,71.0,63.3,56.2,99,88,59,29.93,29.78,5,0,13,0.19
2013-7-27,63.6,57.9,53.5,56.2,51.0,48.5,92,79,60,29.92,29.86,6,1,13,0.00
2013-7-28,69.8,59.0,51.5,55.4,51.5,49.0,92,77,57,30.00,29.84,6,1,14,0.00
2013-7-29,79.8,63.6,49.5,62.2,55.8,48.4,97,78,51,30.10,30.00,3,0,9,0.00
2013-7-30,70.6,62.8,56.5,65.5,61.0,55.7,98,94,84,30.12,30.02,3,0,7,0.05
2013-7-31,80.5,68.3,62.5,69.2,64.6,61.0,99,89,67,30.01,29.90,2,0,11,0.01